Ship Status Report: callsign BAREU60

sailwx.info

Track history (hours):
 
Tides and Currents Weather Stations Pressure Air Temp Water Temp Dewpoint Dewpoint Depression Visibility Wind Speed Wind Dir Waves Ship Positions

Callsign BAREU60 (name unknown)

Last reported at 2017-Nov-24 18:00 UTC. Time now 2017-Nov-25 02:13 UTC.
Position N 42°36' E 018°06'.

Barometer 1022.3 mb

Date/timePositionNaut miles runAvg speedWind from/ knotsBaromVisibWave heightAir tempDewpointWater temp
2017-Nov-24 18:00N 42°36' E 018°06'6 6.0 1022.3
2017-Nov-24 17:00N 42°42' E 018°06'0 0.0 1022.2
2017-Nov-24 08:00N 42°42' E 018°06'15 7.5 1022.9
2017-Nov-24 06:00N 42°30' E 017°54'7 7.5 1022.4
2017-Nov-24 05:00N 42°24' E 017°48'1312.8 1022.0
2017-Nov-24 04:00N 42°12' E 017°42'7 7.5 1021.8
2017-Nov-24 03:00N 42°06' E 017°36'1515.0 1022.2
2017-Nov-24 02:00N 41°54' E 017°24'1312.8 1022.1
2017-Nov-24 01:00N 41°42' E 017°18'7 7.5 1022.4
2017-Nov-24 00:00N 41°36' E 017°12'1515.0 1022.5
2017-Nov-23 23:00N 41°24' E 017°00'8 7.5 1022.5
2017-Nov-23 22:00N 41°18' E 016°54'6 0.4 1022.5
2017-Nov-23 06:00N 41°12' E 016°54'2221.7 1021.8
2017-Nov-23 05:00N 41°24' E 017°18'1514.8 1021.5
2017-Nov-23 04:00N 41°30' E 017°36'2221.6 1020.9
2017-Nov-23 03:00N 41°42' E 018°00'1514.7 1021.2
2017-Nov-23 02:00N 41°48' E 018°18'1110.8 1021.7
2017-Nov-23 01:00N 41°54' E 018°30'1110.8 1022.2
2017-Nov-23 00:00N 42°00' E 018°42'9 8.9 1022.1
2017-Nov-22 23:00N 42°00' E 018°54'11 3.6 1022.5
2017-Nov-22 20:00N 42°06' E 019°06'0 0.0 1022.3
2017-Nov-22 11:00N 42°06' E 019°06'11 2.1 1022.7
2017-Nov-22 06:00N 42°00' E 018°54'1918.8 1022.5
2017-Nov-22 05:00N 41°54' E 018°30'1818.0 1021.6
2017-Nov-22 04:00N 41°42' E 018°12'1918.9 1021.6
2017-Nov-22 03:00N 41°36' E 017°48'1515.0 1021.5
2017-Nov-22 02:00N 41°24' E 017°36'1413.5 1021.5
2017-Nov-22 01:00N 41°24' E 017°18'1110.8 1021.7
2017-Nov-22 00:00N 41°18' E 017°06'1110.8 1021.6
2017-Nov-21 23:00N 41°12' E 016°54'6 3.0 1021.9
2017-Nov-21 21:00N 41°06' E 016°54'0 0.0 1021.7
2017-Nov-20 18:00N 41°06' E 016°54'0 0.0 1021.4
2017-Nov-20 15:00N 41°06' E 016°54'8 0.9 1020.4
2017-Nov-20 07:00N 41°12' E 016°48'8 7.5 1017.9
2017-Nov-20 06:00N 41°18' E 016°54'1110.8 1016.6
2017-Nov-20 05:00N 41°24' E 017°06'1312.8 1015.4
2017-Nov-20 04:00N 41°36' E 017°12'1312.8 1014.3
2017-Nov-20 03:00N 41°48' E 017°18'1110.8 1013.3
2017-Nov-20 02:00N 41°54' E 017°30'1312.8 1012.8
2017-Nov-20 01:00N 42°06' E 017°36'1312.8 1012.6
2017-Nov-20 00:00N 42°18' E 017°42'1110.7 1012.1
2017-Nov-19 23:00N 42°24' E 017°54'1312.8 1011.7
2017-Nov-19 22:00N 42°36' E 018°00'7 0.2 1011.9
2017-Nov-18 09:00N 42°42' E 018°06'0 0.0 1013.4
2017-Nov-18 07:00N 42°42' E 018°06'0 0.0 1012.9
2017-Nov-18 05:00N 42°42' E 018°06'0 0.0 1012.1
2017-Nov-17 13:00N 42°42' E 018°06'0 0.0 1012.6
2017-Nov-17 11:00N 42°42' E 018°06'7 1.5 1013.0
2017-Nov-17 06:00N 42°36' E 018°00'2020.1 1013.5
2017-Nov-17 05:00N 42°18' E 017°48'1514.9 1013.4
2017-Nov-17 04:00N 42°06' E 017°36'7 7.5 1013.1
2017-Nov-17 03:00N 42°00' E 017°30'1312.8 1013.1
2017-Nov-17 02:00N 41°48' E 017°24'7 7.5 1013.0
2017-Nov-17 01:00N 41°42' E 017°18'1312.8 1013.2
2017-Nov-17 00:00N 41°30' E 017°12'1110.8 1013.3
2017-Nov-16 23:00N 41°24' E 017°00'1312.8 1013.3
2017-Nov-16 22:00N 41°12' E 016°54'5 0.3 1013.4
2017-Nov-16 06:00N 41°12' E 017°00'1818.1 1011.7
2017-Nov-16 05:00N 41°24' E 017°18'1919.0 1012.0
2017-Nov-16 04:00N 41°30' E 017°42'1818.0 1012.3
2017-Nov-16 03:00N 41°42' E 018°00'1514.7 1013.3
2017-Nov-16 02:00N 41°48' E 018°18'1514.7 1014.0
2017-Nov-16 01:00N 41°54' E 018°36'1110.8 1014.7
2017-Nov-16 00:00N 42°00' E 018°48'1514.7 1015.3
2017-Nov-15 23:00N 42°06' E 019°06'4 0.3 1014.9
2017-Nov-15 07:00N 42°06' E 019°00'1818.0 1014.1
2017-Nov-15 06:00N 41°54' E 018°42'1918.9 1013.4
2017-Nov-15 05:00N 41°48' E 018°18'1514.7 1011.8
2017-Nov-15 04:00N 41°42' E 018°00'1514.7 1011.1
2017-Nov-15 03:00N 41°36' E 017°42'1515.0 1010.6
2017-Nov-15 02:00N 41°24' E 017°30'9 9.0 1009.0
2017-Nov-15 01:00N 41°24' E 017°18'1110.8 1008.7
2017-Nov-15 00:00N 41°18' E 017°06'1110.8 1006.2
2017-Nov-14 23:00N 41°12' E 016°54'   1006.6
Track history (hours):
 
Tides and Currents Weather Stations Pressure Air Temp Water Temp Dewpoint Dewpoint Depression Visibility Wind Speed Wind Dir Waves Ship Positions

Callsign BAREU60 (name unknown)

Last reported at 2017-Nov-24 18:00 UTC. Time now 2017-Nov-25 02:13 UTC.
Position N 42°36' E 018°06'.

Barometer 1022.3 mb

Date/timePositionNaut miles runAvg speedWind from/ knotsBaromVisibWave heightAir tempDewpointWater temp
2017-Nov-24 18:00N 42°36' E 018°06'6 6.0 1022.3
2017-Nov-24 17:00N 42°42' E 018°06'0 0.0 1022.2
2017-Nov-24 08:00N 42°42' E 018°06'15 7.5 1022.9
2017-Nov-24 06:00N 42°30' E 017°54'7 7.5 1022.4
2017-Nov-24 05:00N 42°24' E 017°48'1312.8 1022.0
2017-Nov-24 04:00N 42°12' E 017°42'7 7.5 1021.8
2017-Nov-24 03:00N 42°06' E 017°36'1515.0 1022.2
2017-Nov-24 02:00N 41°54' E 017°24'1312.8 1022.1
2017-Nov-24 01:00N 41°42' E 017°18'7 7.5 1022.4
2017-Nov-24 00:00N 41°36' E 017°12'1515.0 1022.5
2017-Nov-23 23:00N 41°24' E 017°00'8 7.5 1022.5
2017-Nov-23 22:00N 41°18' E 016°54'6 0.4 1022.5
2017-Nov-23 06:00N 41°12' E 016°54'2221.7 1021.8
2017-Nov-23 05:00N 41°24' E 017°18'1514.8 1021.5
2017-Nov-23 04:00N 41°30' E 017°36'2221.6 1020.9
2017-Nov-23 03:00N 41°42' E 018°00'1514.7 1021.2
2017-Nov-23 02:00N 41°48' E 018°18'1110.8 1021.7
2017-Nov-23 01:00N 41°54' E 018°30'1110.8 1022.2
2017-Nov-23 00:00N 42°00' E 018°42'9 8.9 1022.1
2017-Nov-22 23:00N 42°00' E 018°54'11 3.6 1022.5
2017-Nov-22 20:00N 42°06' E 019°06'0 0.0 1022.3
2017-Nov-22 11:00N 42°06' E 019°06'11 2.1 1022.7
2017-Nov-22 06:00N 42°00' E 018°54'1918.8 1022.5
2017-Nov-22 05:00N 41°54' E 018°30'1818.0 1021.6
2017-Nov-22 04:00N 41°42' E 018°12'1918.9 1021.6
2017-Nov-22 03:00N 41°36' E 017°48'1515.0 1021.5
2017-Nov-22 02:00N 41°24' E 017°36'1413.5 1021.5
2017-Nov-22 01:00N 41°24' E 017°18'1110.8 1021.7
2017-Nov-22 00:00N 41°18' E 017°06'1110.8 1021.6
2017-Nov-21 23:00N 41°12' E 016°54'6 3.0 1021.9
2017-Nov-21 21:00N 41°06' E 016°54'0 0.0 1021.7
2017-Nov-20 18:00N 41°06' E 016°54'0 0.0 1021.4
2017-Nov-20 15:00N 41°06' E 016°54'8 0.9 1020.4
2017-Nov-20 07:00N 41°12' E 016°48'8 7.5 1017.9
2017-Nov-20 06:00N 41°18' E 016°54'1110.8 1016.6
2017-Nov-20 05:00N 41°24' E 017°06'1312.8 1015.4
2017-Nov-20 04:00N 41°36' E 017°12'1312.8 1014.3
2017-Nov-20 03:00N 41°48' E 017°18'1110.8 1013.3
2017-Nov-20 02:00N 41°54' E 017°30'1312.8 1012.8
2017-Nov-20 01:00N 42°06' E 017°36'1312.8 1012.6
2017-Nov-20 00:00N 42°18' E 017°42'1110.7 1012.1
2017-Nov-19 23:00N 42°24' E 017°54'1312.8 1011.7
2017-Nov-19 22:00N 42°36' E 018°00'7 0.2 1011.9
2017-Nov-18 09:00N 42°42' E 018°06'0 0.0 1013.4
2017-Nov-18 07:00N 42°42' E 018°06'0 0.0 1012.9
2017-Nov-18 05:00N 42°42' E 018°06'0 0.0 1012.1
2017-Nov-17 13:00N 42°42' E 018°06'0 0.0 1012.6
2017-Nov-17 11:00N 42°42' E 018°06'7 1.5 1013.0
2017-Nov-17 06:00N 42°36' E 018°00'2020.1 1013.5
2017-Nov-17 05:00N 42°18' E 017°48'1514.9 1013.4
2017-Nov-17 04:00N 42°06' E 017°36'7 7.5 1013.1
2017-Nov-17 03:00N 42°00' E 017°30'1312.8 1013.1
2017-Nov-17 02:00N 41°48' E 017°24'7 7.5 1013.0
2017-Nov-17 01:00N 41°42' E 017°18'1312.8 1013.2
2017-Nov-17 00:00N 41°30' E 017°12'1110.8 1013.3
2017-Nov-16 23:00N 41°24' E 017°00'1312.8 1013.3
2017-Nov-16 22:00N 41°12' E 016°54'5 0.3 1013.4
2017-Nov-16 06:00N 41°12' E 017°00'1818.1 1011.7
2017-Nov-16 05:00N 41°24' E 017°18'1919.0 1012.0
2017-Nov-16 04:00N 41°30' E 017°42'1818.0 1012.3
2017-Nov-16 03:00N 41°42' E 018°00'1514.7 1013.3
2017-Nov-16 02:00N 41°48' E 018°18'1514.7 1014.0
2017-Nov-16 01:00N 41°54' E 018°36'1110.8 1014.7
2017-Nov-16 00:00N 42°00' E 018°48'1514.7 1015.3
2017-Nov-15 23:00N 42°06' E 019°06'4 0.3 1014.9
2017-Nov-15 07:00N 42°06' E 019°00'1818.0 1014.1
2017-Nov-15 06:00N 41°54' E 018°42'1918.9 1013.4
2017-Nov-15 05:00N 41°48' E 018°18'1514.7 1011.8
2017-Nov-15 04:00N 41°42' E 018°00'1514.7 1011.1
2017-Nov-15 03:00N 41°36' E 017°42'1515.0 1010.6
2017-Nov-15 02:00N 41°24' E 017°30'9 9.0 1009.0
2017-Nov-15 01:00N 41°24' E 017°18'1110.8 1008.7
2017-Nov-15 00:00N 41°18' E 017°06'1110.8 1006.2
2017-Nov-14 23:00N 41°12' E 016°54'   1006.6

Dump ship's entire track history